Time;durP1;ratioP1;P1;durP2;ratioP2;P2;SDS_P1;SDS_P2;PMS_P1;PMS_P2;Temp;Humidity;BMP_temperature;BMP_pressure;BME280_temperature;BME280_humidity;BME280_pressure;Samples;Min_cycle;Max_cycle;Signal;HPM_P1;HPM_P2
2023/01/30 00:01:47;;;;;;;45.17;19.73;;;;;;;6.18;100.00;101910.53;5045365;28;20027;-75
2023/01/30 00:04:16;;;;;;;36.33;17.33;;;;;;;6.14;100.00;101900.09;5046207;28;20040;-77
2023/01/30 00:06:41;;;;;;;39.28;18.40;;;;;;;6.21;100.00;101899.38;5040213;28;20025;-75
2023/01/30 00:09:11;;;;;;;33.08;17.92;;;;;;;6.23;100.00;101897.38;5044559;28;20481;-75
2023/01/30 00:11:36;;;;;;;38.55;18.38;;;;;;;6.27;100.00;101892.50;5046992;28;20029;-75
2023/01/30 00:14:02;;;;;;;37.33;15.82;;;;;;;6.27;100.00;101915.13;5042280;28;20025;-75
2023/01/30 00:16:30;;;;;;;33.47;15.82;;;;;;;6.30;100.00;101924.88;5025013;28;20451;-75
2023/01/30 00:18:55;;;;;;;28.48;14.23;;;;;;;6.38;100.00;101919.56;5046014;28;20032;-75
2023/01/30 00:21:21;;;;;;;27.77;12.88;;;;;;;6.39;100.00;101911.25;5042886;28;20049;-75
2023/01/30 00:23:47;;;;;;;33.78;11.10;;;;;;;6.49;100.00;101897.63;5043184;28;20538;-74
2023/01/30 00:26:13;;;;;;;28.08;10.95;;;;;;;6.45;100.00;101898.91;5050309;28;20078;-75
2023/01/30 00:28:39;;;;;;;20.98;9.57;;;;;;;6.56;100.00;101909.66;5046099;28;20448;-75
2023/01/30 00:31:05;;;;;;;24.55;8.70;;;;;;;6.60;100.00;101909.22;5044654;28;20056;-73
2023/01/30 00:33:30;;;;;;;22.33;9.25;;;;;;;6.63;100.00;101906.19;5029792;28;20032;-74
2023/01/30 00:35:56;;;;;;;17.65;7.55;;;;;;;6.64;100.00;101897.03;5046149;28;20029;-75
2023/01/30 00:38:23;;;;;;;30.30;6.88;;;;;;;6.72;100.00;101888.16;5047483;28;20032;-76
2023/01/30 00:40:49;;;;;;;23.13;7.55;;;;;;;6.73;100.00;101895.31;5042960;28;20037;-75
2023/01/30 00:48:49;;;;;;;22.65;6.30;;;;;;;6.84;100.00;101876.06;5044658;28;20036;-75
2023/01/30 00:51:14;;;;;;;20.25;6.88;;;;;;;6.88;100.00;101870.16;5044954;28;20036;-74
2023/01/30 00:53:40;;;;;;;14.25;6.80;;;;;;;6.90;100.00;101870.84;5040417;28;20033;-75
2023/01/30 00:56:05;;;;;;;22.20;7.07;;;;;;;6.95;100.00;101873.16;5041305;28;20033;-76
2023/01/30 00:58:32;;;;;;;24.73;6.85;;;;;;;6.94;100.00;101863.28;5053525;28;20410;-75
2023/01/30 01:00:58;;;;;;;24.27;7.43;;;;;;;6.93;100.00;101854.25;5045652;28;20029;-76
2023/01/30 01:03:23;;;;;;;15.02;6.28;;;;;;;6.95;100.00;101856.81;5044053;28;20029;-76
2023/01/30 01:05:49;;;;;;;24.25;6.40;;;;;;;6.96;100.00;101856.69;5045929;28;20100;-75
2023/01/30 01:08:14;;;;;;;20.08;5.85;;;;;;;6.98;100.00;101864.66;5043076;28;20027;-75
2023/01/30 01:10:40;;;;;;;14.43;6.20;;;;;;;6.99;100.00;101864.53;5046430;28;20435;-76
2023/01/30 01:13:09;;;;;;;18.33;6.18;;;;;;;6.95;100.00;101865.00;5042867;28;20389;-75
2023/01/30 01:15:35;;;;;;;23.55;6.45;;;;;;;6.98;100.00;101851.06;5043740;28;20029;-75
2023/01/30 01:18:00;;;;;;;20.88;6.32;;;;;;;7.01;100.00;101845.31;5041859;28;20417;-76
2023/01/30 01:20:26;;;;;;;16.55;6.03;;;;;;;7.02;100.00;101839.72;5041848;28;20086;-75
2023/01/30 01:22:55;;;;;;;26.27;6.82;;;;;;;7.01;100.00;101827.13;5046361;28;20025;-76
2023/01/30 01:25:23;;;;;;;19.80;6.40;;;;;;;7.01;100.00;101818.09;5038679;28;20048;-75
2023/01/30 01:27:51;;;;;;;17.33;5.53;;;;;;;6.97;100.00;101803.91;5043755;28;20028;-75
2023/01/30 01:30:17;;;;;;;17.55;5.28;;;;;;;6.96;100.00;101806.78;5044291;28;20095;-75
2023/01/30 01:32:42;;;;;;;18.27;6.10;;;;;;;6.93;100.00;101805.22;5036717;28;20449;-76
2023/01/30 01:35:10;;;;;;;17.20;4.95;;;;;;;6.92;100.00;101789.88;5043922;28;20277;-76
2023/01/30 01:37:35;;;;;;;13.90;5.95;;;;;;;6.96;100.00;101799.47;5040428;28;20528;-76
2023/01/30 01:42:46;;;;;;;25.83;5.20;;;;;;;6.97;100.00;101792.16;5047467;28;20036;-76
2023/01/30 01:45:19;;;;;;;;;;;;;;;6.97;100.00;101789.44;5039598;28;20044;-76
2023/01/30 01:48:08;;;;;;;19.40;6.03;;;;;;;6.98;100.00;101805.63;5044402;28;20023;-76
2023/01/30 01:50:39;;;;;;;17.35;5.55;;;;;;;6.98;100.00;101805.63;5040607;28;20508;-76
2023/01/30 01:53:06;;;;;;;17.73;5.18;;;;;;;6.94;100.00;101800.63;5044583;28;20084;-76
2023/01/30 01:55:31;;;;;;;22.80;6.07;;;;;;;6.92;100.00;101818.97;5040666;28;20033;-76
2023/01/30 01:58:25;;;;;;;25.58;6.63;;;;;;;6.94;100.00;101811.53;5047768;28;20029;-76
2023/01/30 02:00:56;;;;;;;18.65;6.00;;;;;;;6.91;100.00;101811.81;5032580;28;20038;-76
2023/01/30 02:03:28;;;;;;;23.15;5.78;;;;;;;6.93;100.00;101805.22;5041219;28;20109;-76
2023/01/30 02:06:02;;;;;;;22.35;5.80;;;;;;;6.98;100.00;101802.91;5028616;28;20484;-76
2023/01/30 02:08:36;;;;;;;19.60;6.15;;;;;;;6.96;100.00;101794.03;5042106;28;20512;-76
2023/01/30 02:11:21;;;;;;;11.25;5.00;;;;;;;6.95;100.00;101797.75;5037298;28;20043;-76
2023/01/30 02:13:49;;;;;;;21.13;6.95;;;;;;;6.94;100.00;101806.94;5041132;28;20396;-76
2023/01/30 02:16:15;;;;;;;13.75;4.50;;;;;;;6.96;100.00;101804.06;5043406;28;20488;-75
2023/01/30 02:18:44;;;;;;;15.23;4.57;;;;;;;6.91;100.00;101801.81;5041131;28;20568;-76
2023/01/30 02:21:32;;;;;;;13.88;5.20;;;;;;;6.88;100.00;101795.81;5042771;28;20060;-76
2023/01/30 02:24:35;;;;;;;23.88;5.20;;;;;;;6.84;100.00;101799.81;5042773;28;20029;-76
2023/01/30 02:27:32;;;;;;;24.77;4.82;;;;;;;6.79;100.00;101807.59;5043272;28;20024;-76
2023/01/30 02:30:34;;;;;;;15.45;5.18;;;;;;;6.78;100.00;101808.59;5030819;28;20080;-76
2023/01/30 02:33:15;;;;;;;16.00;5.03;;;;;;;6.73;100.00;101797.28;5040432;28;20488;-75
2023/01/30 02:35:54;;;;;;;17.13;4.50;;;;;;;6.73;100.00;101789.13;5041418;28;20500;-76
2023/01/30 02:38:37;;;;;;;21.83;4.30;;;;;;;6.74;100.00;101782.66;5041773;28;20102;-76
2023/01/30 02:41:28;;;;;;;17.60;4.47;;;;;;;6.69;100.00;101787.69;5043876;28;20021;-76
2023/01/30 02:44:04;;;;;;;15.32;5.20;;;;;;;6.66;100.00;101796.16;5040005;28;20124;-76
2023/01/30 02:46:49;;;;;;;23.02;4.97;;;;;;;6.66;100.00;101798.88;5040337;28;20033;-76
2023/01/30 02:49:31;;;;;;;18.00;4.68;;;;;;;6.69;100.00;101798.59;5040857;28;20092;-77
2023/01/30 02:52:01;;;;;;;19.30;4.75;;;;;;;6.67;100.00;101795.16;5038568;28;20069;-76
2023/01/30 02:54:27;;;;;;;16.23;4.20;;;;;;;6.69;100.00;101776.81;5044147;28;20071;-76
2023/01/30 02:56:57;;;;;;;24.83;5.50;;;;;;;6.67;100.00;101768.78;5044521;28;20045;-76
2023/01/30 02:59:28;;;;;;;16.77;4.90;;;;;;;6.57;100.00;101765.25;5040071;28;20025;-75
2023/01/30 03:02:09;;;;;;;16.65;4.25;;;;;;;6.60;100.00;101762.25;5041028;28;20022;-77
2023/01/30 03:04:59;;;;;;;14.18;4.82;;;;;;;6.65;100.00;101761.78;5041809;28;20032;-76
2023/01/30 03:07:40;;;;;;;13.68;5.13;;;;;;;6.62;100.00;101752.03;5045143;28;20040;-76
2023/01/30 03:10:27;;;;;;;21.35;4.70;;;;;;;6.59;100.00;101756.94;5039663;28;20032;-76
2023/01/30 03:13:10;;;;;;;18.00;4.72;;;;;;;6.65;100.00;101767.22;5040465;28;20025;-76
2023/01/30 03:15:42;;;;;;;21.08;4.60;;;;;;;6.62;100.00;101762.09;5039961;28;20037;-76
2023/01/30 03:18:08;;;;;;;25.02;5.25;;;;;;;6.61;100.00;101758.50;5042752;28;20026;-77
2023/01/30 03:20:40;;;;;;;23.15;5.80;;;;;;;6.65;100.00;101750.88;5039533;28;20492;-76
2023/01/30 03:23:07;;;;;;;19.00;4.75;;;;;;;6.69;100.00;101763.19;5038832;28;20489;-76
2023/01/30 03:25:34;;;;;;;;;;;;;;;6.61;100.00;101761.22;5046534;28;20472;-75
2023/01/30 03:28:02;;;;;;;19.75;5.57;;;;;;;6.58;100.00;101760.66;5039823;28;19936;-76
2023/01/30 03:30:28;;;;;;;23.08;4.50;;;;;;;6.59;100.00;101746.06;5043170;28;20503;-75
2023/01/30 03:32:55;;;;;;;20.30;4.88;;;;;;;6.62;100.00;101749.31;5022480;28;20029;-76
2023/01/30 03:35:20;;;;;;;18.48;4.95;;;;;;;6.65;100.00;101759.06;5035690;28;20433;-76
2023/01/30 03:37:46;;;;;;;16.38;6.03;;;;;;;6.66;100.00;101760.75;5040276;28;20036;-76
2023/01/30 03:40:15;;;;;;;20.45;4.97;;;;;;;6.69;100.00;101749.59;5039190;28;20026;-75
2023/01/30 03:42:42;;;;;;;21.63;4.85;;;;;;;6.70;100.00;101754.03;5015456;28;20511;-76
2023/01/30 03:45:08;;;;;;;;;;;;;;;6.67;100.00;101757.06;5041231;28;20047;-74
2023/01/30 03:47:35;;;;;;;16.05;4.38;;;;;;;6.64;100.00;101762.78;5021262;28;20399;-75
2023/01/30 03:50:00;;;;;;;19.90;4.40;;;;;;;6.69;100.00;101760.47;5039365;28;20020;-75
2023/01/30 03:52:27;;;;;;;28.88;5.32;;;;;;;6.73;100.00;101756.47;5013144;28;20048;-76
2023/01/30 03:54:53;;;;;;;19.30;5.20;;;;;;;6.72;100.00;101758.31;5040126;28;20022;-76
2023/01/30 03:57:18;;;;;;;18.40;4.75;;;;;;;6.76;100.00;101754.28;5024686;28;20049;-77
2023/01/30 03:59:43;;;;;;;26.25;4.43;;;;;;;6.72;100.00;101752.03;5043039;28;20029;-76
2023/01/30 04:02:10;;;;;;;23.80;5.20;;;;;;;6.74;100.00;101750.00;5038073;28;20125;-77
2023/01/30 04:04:35;;;;;;;24.65;4.80;;;;;;;6.76;100.00;101753.41;5013897;28;20373;-76
2023/01/30 04:07:01;;;;;;;21.50;4.82;;;;;;;6.83;100.00;101754.53;5041897;28;20704;-77
2023/01/30 04:09:27;;;;;;;21.73;5.03;;;;;;;6.81;100.00;101756.53;5038142;28;20033;-76
2023/01/30 04:11:53;;;;;;;25.73;6.10;;;;;;;6.80;100.00;101747.53;5039094;28;20029;-76
2023/01/30 04:14:18;;;;;;;21.67;5.35;;;;;;;6.88;100.00;101744.06;5037788;28;20049;-76
2023/01/30 04:16:45;;;;;;;19.55;5.13;;;;;;;6.94;100.00;101748.91;5039314;28;20022;-77
2023/01/30 04:19:10;;;;;;;20.33;5.20;;;;;;;6.89;100.00;101748.50;5039764;28;20425;-77
2023/01/30 04:21:36;;;;;;;29.08;5.65;;;;;;;6.99;100.00;101754.75;5041052;28;20041;-77
2023/01/30 04:24:02;;;;;;;28.38;5.82;;;;;;;7.01;100.00;101758.16;5029840;28;20086;-76
2023/01/30 04:26:27;;;;;;;27.92;5.80;;;;;;;7.00;100.00;101754.56;5021235;28;20039;-76
2023/01/30 04:28:55;;;;;;;26.17;5.65;;;;;;;7.01;100.00;101755.44;5041574;28;20041;-76
2023/01/30 04:31:20;;;;;;;26.85;6.40;;;;;;;7.09;100.00;101752.78;5042398;28;20346;-76
2023/01/30 04:33:47;;;;;;;30.35;6.00;;;;;;;7.12;100.00;101761.53;5041931;28;20124;-75
2023/01/30 04:36:13;;;;;;;25.98;6.22;;;;;;;7.13;100.00;101774.16;5040289;28;20104;-76
2023/01/30 04:38:40;;;;;;;23.77;5.47;;;;;;;7.12;100.00;101753.38;5042829;28;20033;-75
2023/01/30 04:41:05;;;;;;;33.58;6.68;;;;;;;7.11;100.00;101746.19;5040470;28;20033;-76
2023/01/30 04:43:31;;;;;;;32.72;6.85;;;;;;;7.05;100.00;101757.69;5040424;28;20135;-75
2023/01/30 04:45:57;;;;;;;17.25;4.90;;;;;;;7.19;100.00;101756.31;5039736;28;20025;-75
2023/01/30 04:48:27;;;;;;;15.98;4.40;;;;;;;7.29;100.00;101759.84;5044041;28;20159;-76
2023/01/30 04:50:55;;;;;;;31.58;4.93;;;;;;;7.36;100.00;101760.97;5025589;28;20120;-75
2023/01/30 04:53:22;;;;;;;13.63;4.28;;;;;;;7.30;100.00;101753.38;5043634;28;20065;-76
2023/01/30 04:55:48;;;;;;;15.00;3.97;;;;;;;7.24;100.00;101754.88;5041907;28;20607;-76
2023/01/30 04:58:14;;;;;;;23.33;5.57;;;;;;;7.32;100.00;101770.44;5041455;28;20033;-76
2023/01/30 05:00:40;;;;;;;14.68;4.85;;;;;;;7.33;100.00;101777.59;5044557;28;20029;-76
2023/01/30 05:03:06;;;;;;;24.85;5.15;;;;;;;7.37;100.00;101773.56;5047170;28;20044;-75
2023/01/30 05:05:31;;;;;;;22.20;3.90;;;;;;;7.43;100.00;101784.69;5053034;28;20384;-75
2023/01/30 05:07:59;;;;;;;15.43;3.67;;;;;;;7.41;100.00;101785.84;5033479;28;20116;-76
2023/01/30 05:10:24;;;;;;;32.67;4.35;;;;;;;7.44;100.00;101771.94;5051763;28;20055;-76
2023/01/30 05:12:50;;;;;;;17.42;4.25;;;;;;;7.45;100.00;101781.81;5042636;28;20029;-76
2023/01/30 05:15:15;;;;;;;22.00;4.05;;;;;;;7.46;100.00;101776.22;5051625;28;20166;-76
2023/01/30 05:17:41;;;;;;;23.08;4.60;;;;;;;7.41;100.00;101769.50;5042089;28;20022;-76
2023/01/30 05:20:13;;;;;;;22.73;4.32;;;;;;;7.46;100.00;101759.00;5043329;28;20025;-76
2023/01/30 05:22:39;;;;;;;18.08;3.55;;;;;;;7.44;99.99;101764.63;5044230;28;20068;-75
2023/01/30 05:25:06;;;;;;;14.82;3.70;;;;;;;7.50;99.05;101765.84;5048727;28;20427;-76
2023/01/30 05:27:33;;;;;;;12.48;3.08;;;;;;;7.46;97.70;101746.22;5042374;28;20033;-75
2023/01/30 05:29:58;;;;;;;16.20;3.67;;;;;;;7.53;96.16;101757.38;5041257;28;20030;-75
2023/01/30 05:32:26;;;;;;;12.68;2.83;;;;;;;7.57;94.45;101751.44;5041507;28;20044;-76
2023/01/30 05:34:54;;;;;;;16.33;4.18;;;;;;;7.52;94.61;101759.25;5046592;28;20490;-77
2023/01/30 05:37:21;;;;;;;13.88;3.53;;;;;;;7.49;93.82;101770.47;5046091;28;20036;-76
2023/01/30 05:39:47;;;;;;;10.70;2.72;;;;;;;7.40;94.67;101759.63;5044885;28;20071;-76
2023/01/30 05:42:17;;;;;;;10.73;2.85;;;;;;;7.36;94.94;101760.97;5043017;28;20041;-75
2023/01/30 05:44:42;;;;;;;13.77;3.15;;;;;;;7.29;94.73;101774.34;5036418;28;20029;-76
2023/01/30 05:47:07;;;;;;;12.82;3.30;;;;;;;7.30;93.60;101770.59;5040466;28;20039;-75
2023/01/30 05:49:33;;;;;;;14.13;2.60;;;;;;;7.17;94.66;101794.63;5043766;28;20025;-76
2023/01/30 05:51:58;;;;;;;14.65;3.03;;;;;;;7.09;94.31;101796.38;5028689;28;20041;-75
2023/01/30 05:54:27;;;;;;;14.50;3.42;;;;;;;7.03;94.21;101788.81;5043980;28;20459;-76
2023/01/30 05:56:52;;;;;;;12.00;4.03;;;;;;;7.02;93.36;101792.56;5042880;28;20103;-75
2023/01/30 05:59:20;;;;;;;17.55;3.20;;;;;;;6.98;93.57;101782.97;5024803;28;20135;-76
2023/01/30 06:01:46;;;;;;;13.48;3.10;;;;;;;7.02;93.05;101789.84;5047173;28;20074;-75
2023/01/30 06:04:11;;;;;;;17.83;2.97;;;;;;;7.00;92.40;101786.41;5044098;28;20074;-75
2023/01/30 06:06:37;;;;;;;21.83;3.10;;;;;;;6.95;92.92;101791.47;5029041;28;20520;-76
2023/01/30 06:09:03;;;;;;;18.70;3.90;;;;;;;6.92;92.96;101781.72;5045918;28;20075;-75
2023/01/30 06:11:29;;;;;;;21.00;3.45;;;;;;;6.91;93.22;101785.47;5040632;28;20041;-76
2023/01/30 06:13:54;;;;;;;19.33;3.50;;;;;;;6.87;94.15;101796.78;5045928;28;20037;-76
2023/01/30 06:16:21;;;;;;;22.73;3.60;;;;;;;6.90;93.81;101804.66;5043177;28;20022;-76
2023/01/30 06:18:46;;;;;;;15.75;3.70;;;;;;;6.76;95.66;101806.00;5046124;28;20430;-76
2023/01/30 06:21:14;;;;;;;25.15;4.43;;;;;;;6.72;95.16;101809.19;5030034;28;20057;-75
2023/01/30 06:23:41;;;;;;;18.63;3.88;;;;;;;6.73;95.38;101813.63;5046565;28;20404;-76
2023/01/30 06:26:07;;;;;;;21.92;4.65;;;;;;;6.68;95.60;101810.50;5040464;28;20082;-76
2023/01/30 06:28:32;;;;;;;29.35;4.32;;;;;;;6.59;96.21;101786.88;5043524;28;20108;-76
2023/01/30 06:30:58;;;;;;;33.15;3.65;;;;;;;6.59;95.63;101795.03;5044730;28;20026;-76
2023/01/30 06:33:23;;;;;;;18.02;4.13;;;;;;;6.58;95.26;101794.16;5043868;28;20163;-76
2023/01/30 06:35:50;;;;;;;34.20;4.72;;;;;;;6.51;95.51;101811.28;5042860;28;20074;-76
2023/01/30 06:38:16;;;;;;;26.23;3.78;;;;;;;6.53;94.10;101806.53;5040174;28;20076;-76
2023/01/30 06:40:47;;;;;;;25.93;4.73;;;;;;;6.44;94.40;101812.84;5043480;28;20495;-76
2023/01/30 06:43:13;;;;;;;19.10;3.33;;;;;;;6.41;94.27;101807.72;5039963;28;20370;-77
2023/01/30 06:45:39;;;;;;;33.97;5.30;;;;;;;6.41;93.04;101810.44;5043449;28;20098;-76
2023/01/30 06:48:04;;;;;;;25.95;4.88;;;;;;;6.36;92.78;101786.38;5038140;28;20262;-76
2023/01/30 06:50:30;;;;;;;33.42;4.07;;;;;;;6.32;92.52;101797.69;5041791;28;20387;-76
2023/01/30 06:52:57;;;;;;;30.70;4.68;;;;;;;6.35;91.47;101792.81;5040378;28;20044;-76
2023/01/30 06:55:25;;;;;;;19.42;3.58;;;;;;;6.32;91.46;101801.28;5041068;28;20174;-76
2023/01/30 06:58:06;;;;;;;28.20;4.38;;;;;;;6.28;90.81;101805.31;5039383;28;20032;-76
2023/01/30 07:00:32;;;;;;;22.45;4.38;;;;;;;6.32;89.42;101805.88;5040245;28;20101;-76
2023/01/30 07:02:58;;;;;;;37.03;4.77;;;;;;;6.23;89.72;101810.31;5042941;28;20431;-76
2023/01/30 07:05:24;;;;;;;24.27;3.42;;;;;;;6.20;89.31;101832.34;5038064;28;20270;-76
2023/01/30 07:07:49;;;;;;;18.70;3.85;;;;;;;6.24;87.60;101843.84;5042714;28;20079;-76
2023/01/30 07:10:15;;;;;;;27.10;3.75;;;;;;;6.24;87.10;101854.72;5038845;28;20104;-76
2023/01/30 07:12:40;;;;;;;30.38;5.47;;;;;;;6.29;85.46;101846.94;5040644;28;20060;-76
2023/01/30 07:15:06;;;;;;;37.25;4.55;;;;;;;6.24;86.17;101854.72;5040477;28;20052;-76
2023/01/30 07:17:32;;;;;;;34.30;4.75;;;;;;;6.26;85.90;101842.66;5041028;28;20026;-76
2023/01/30 07:19:57;;;;;;;24.63;4.28;;;;;;;6.26;85.21;101852.69;5039969;28;20099;-76
2023/01/30 07:22:23;;;;;;;29.02;4.78;;;;;;;6.20;85.05;101845.97;5039837;28;20041;-76
2023/01/30 07:24:48;;;;;;;23.30;4.15;;;;;;;6.16;85.40;101843.69;5042840;28;20464;-76
2023/01/30 07:27:14;;;;;;;27.60;3.47;;;;;;;6.18;84.55;101839.81;5046121;28;20033;-76
2023/01/30 07:29:39;;;;;;;37.42;4.65;;;;;;;6.22;83.60;101840.38;5042540;28;20024;-76
2023/01/30 07:32:17;;;;;;;20.95;3.50;;;;;;;6.22;84.19;101840.38;5038886;28;20393;-76
2023/01/30 07:34:42;;;;;;;22.05;4.10;;;;;;;6.19;84.57;101836.09;5039618;28;20083;-76
2023/01/30 07:37:08;;;;;;;38.40;4.97;;;;;;;6.07;85.21;101841.81;5040878;28;20396;-76
2023/01/30 07:39:34;;;;;;;20.35;3.85;;;;;;;6.13;84.59;101860.28;5039027;28;20060;-76
2023/01/30 07:42:00;;;;;;;23.77;4.88;;;;;;;6.07;85.47;101860.84;5042179;28;20024;-76
2023/01/30 07:44:25;;;;;;;33.00;4.65;;;;;;;6.11;85.02;101854.13;5038014;28;20039;-76
2023/01/30 07:46:51;;;;;;;28.63;4.22;;;;;;;6.15;85.10;101863.75;5041419;28;20025;-76
2023/01/30 07:49:16;;;;;;;33.65;4.70;;;;;;;6.07;85.71;101863.56;5040062;28;20032;-76
2023/01/30 07:51:41;;;;;;;30.77;4.80;;;;;;;6.15;85.18;101866.44;5040604;28;20025;-76
2023/01/30 07:54:07;;;;;;;23.40;3.75;;;;;;;6.19;84.68;101849.69;5040905;28;20114;-76
2023/01/30 07:56:32;;;;;;;28.88;4.18;;;;;;;6.24;84.26;101854.72;5039687;28;20025;-76
2023/01/30 07:58:58;;;;;;;27.88;4.03;;;;;;;6.22;84.37;101856.72;5040516;28;20484;-75
2023/01/30 08:01:23;;;;;;;25.35;4.22;;;;;;;6.27;84.39;101855.28;5045827;28;20037;-76
2023/01/30 08:03:49;;;;;;;29.02;3.67;;;;;;;6.12;85.89;101851.28;5038751;28;20017;-76
2023/01/30 08:06:15;;;;;;;21.73;4.20;;;;;;;6.18;85.85;101849.81;5040542;28;20111;-75
2023/01/30 08:08:41;;;;;;;31.48;5.50;;;;;;;6.16;85.82;101865.44;5038553;28;20519;-76
2023/01/30 08:11:06;;;;;;;30.17;4.20;;;;;;;6.19;86.75;101878.78;5039352;28;20041;-75
2023/01/30 08:13:32;;;;;;;22.50;4.47;;;;;;;6.26;86.51;101877.19;5048035;28;20034;-75
2023/01/30 08:16:05;;;;;;;28.73;4.13;;;;;;;6.27;86.68;101901.53;5040666;28;20044;-75
2023/01/30 08:18:32;;;;;;;22.45;4.03;;;;;;;6.30;87.40;101900.38;5038511;28;20075;-75
2023/01/30 08:21:04;;;;;;;25.60;4.20;;;;;;;6.27;87.40;101901.53;5039703;28;20400;-76
2023/01/30 08:23:30;;;;;;;25.10;4.10;;;;;;;6.33;87.19;101889.19;5045213;28;20476;-76
2023/01/30 08:26:00;;;;;;;31.20;4.37;;;;;;;6.35;87.40;101895.38;5043726;28;20021;-75
2023/01/30 08:28:27;;;;;;;22.30;3.83;;;;;;;6.44;86.32;101899.91;5043249;28;20029;-76
2023/01/30 08:30:55;;;;;;;27.65;6.43;;;;;;;6.40;86.76;101890.34;5044553;28;20016;-76
2023/01/30 08:33:22;;;;;;;20.65;4.30;;;;;;;6.50;84.90;101899.34;5041879;28;20523;-76
2023/01/30 08:35:47;;;;;;;15.10;4.03;;;;;;;6.46;85.47;101889.78;5044189;28;20108;-75
2023/01/30 08:38:13;;;;;;;28.58;5.18;;;;;;;6.43;85.66;101914.53;5043645;28;20207;-75
2023/01/30 08:40:38;;;;;;;26.02;3.60;;;;;;;6.52;84.59;101908.22;5044784;28;20472;-76
2023/01/30 08:43:04;;;;;;;28.88;4.70;;;;;;;6.54;84.61;101893.47;5042838;28;20032;-76
2023/01/30 08:45:30;;;;;;;40.15;4.15;;;;;;;6.52;85.04;101908.22;5045438;28;20025;-76
2023/01/30 08:48:04;;;;;;;36.10;3.70;;;;;;;6.49;84.71;101913.94;5042090;28;20025;-76
2023/01/30 08:50:30;;;;;;;40.25;5.15;;;;;;;6.56;85.39;101913.22;5042594;28;20077;-75
2023/01/30 08:52:56;;;;;;;22.00;4.27;;;;;;;6.66;84.40;101916.81;5043911;28;20052;-75
2023/01/30 08:55:21;;;;;;;20.52;4.57;;;;;;;6.77;83.53;101934.81;5041704;28;20029;-75
2023/01/30 08:57:47;;;;;;;30.65;6.63;;;;;;;6.75;83.40;101935.00;5041972;28;20021;-76
2023/01/30 09:00:13;;;;;;;24.00;4.80;;;;;;;6.81;83.45;101934.41;5044744;28;20025;-76
2023/01/30 09:02:39;;;;;;;35.00;9.07;;;;;;;6.92;82.83;101944.25;5041072;28;20025;-76
2023/01/30 09:05:05;;;;;;;32.95;4.80;;;;;;;6.99;82.59;101926.34;5042789;28;20029;-76
2023/01/30 09:07:31;;;;;;;26.83;4.20;;;;;;;7.00;82.90;101958.00;5041782;28;20040;-75
2023/01/30 09:09:56;;;;;;;25.85;3.67;;;;;;;7.00;83.32;101944.38;5043342;28;20021;-76
2023/01/30 09:12:22;;;;;;;24.35;3.35;;;;;;;7.04;82.74;101957.56;5043526;28;20117;-76
2023/01/30 09:14:48;;;;;;;25.33;4.43;;;;;;;7.09;82.41;101947.06;5042883;28;20489;-76
2023/01/30 09:17:13;;;;;;;26.75;3.28;;;;;;;7.07;82.70;101953.69;5044241;28;20024;-76
2023/01/30 09:19:38;;;;;;;22.65;3.45;;;;;;;7.16;82.16;101974.59;5041561;28;20385;-75
2023/01/30 09:22:04;;;;;;;24.23;4.38;;;;;;;7.26;80.78;101970.81;5044745;28;20052;-75
2023/01/30 09:24:30;;;;;;;31.65;3.83;;;;;;;7.33;80.73;101979.25;5041398;28;20033;-75
2023/01/30 09:26:57;;;;;;;35.67;5.15;;;;;;;7.38;80.08;101979.69;5044205;28;20108;-75
2023/01/30 09:29:26;;;;;;;34.05;4.03;;;;;;;7.37;80.21;101967.06;5041999;28;20104;-76
2023/01/30 09:31:52;;;;;;;25.40;3.70;;;;;;;7.35;80.06;101975.38;5042394;28;20033;-76
2023/01/30 09:34:18;;;;;;;30.03;4.40;;;;;;;7.29;80.02;101965.09;5040379;28;20033;-75
2023/01/30 09:36:43;;;;;;;21.88;3.78;;;;;;;7.33;79.74;101992.91;5043305;28;20362;-73
2023/01/30 09:39:09;;;;;;;24.95;3.58;;;;;;;7.34;80.07;101983.69;5042783;28;20058;-73
2023/01/30 09:41:59;;;;;;;25.98;3.72;;;;;;;7.34;80.58;101983.69;5049567;28;20032;-73
2023/01/30 09:44:31;;;;;;;27.80;3.42;;;;;;;7.32;81.21;102002.91;5041053;28;20151;-74
2023/01/30 09:47:39;;;;;;;16.98;3.05;;;;;;;7.38;79.60;101987.84;5043842;28;20480;-73
2023/01/30 09:50:34;;;;;;;30.02;4.07;;;;;;;7.49;79.95;101990.41;5030115;28;20120;-74
2023/01/30 09:53:31;;;;;;;19.20;3.00;;;;;;;7.48;80.91;102005.88;5042550;28;20033;-73
2023/01/30 09:56:00;;;;;;;27.23;3.47;;;;;;;7.51;79.36;102007.44;5042359;28;20028;-74
2023/01/30 09:58:39;;;;;;;26.10;3.60;;;;;;;7.53;79.40;102017.19;5040115;28;20057;-74
2023/01/30 10:01:12;;;;;;;30.13;4.47;;;;;;;7.53;79.33;102008.19;5041088;28;20056;-75
2023/01/30 10:03:55;;;;;;;21.30;4.55;;;;;;;7.58;79.31;102011.31;5040775;28;20120;-73
2023/01/30 10:06:21;;;;;;;21.13;3.55;;;;;;;7.58;79.69;102006.72;5041828;28;20480;-73
2023/01/30 10:09:26;;;;;;;23.25;4.25;;;;;;;7.63;79.30;102028.09;5042886;28;20182;-73
2023/01/30 10:12:15;;;;;;;32.38;5.05;;;;;;;7.64;80.00;102018.91;5027895;28;20084;-73
2023/01/30 10:14:40;;;;;;;18.65;3.42;;;;;;;7.62;79.78;102037.25;5041236;28;20378;-73
2023/01/30 10:17:52;;;;;;;26.67;4.30;;;;;;;7.59;79.18;102032.13;5043630;28;20036;-74
2023/01/30 10:20:36;;;;;;;19.73;3.95;;;;;;;7.68;78.86;102033.94;5040811;28;20116;-74
2023/01/30 10:23:10;;;;;;;21.95;4.47;;;;;;;7.67;77.95;102044.00;5040465;28;20092;-73
2023/01/30 10:25:47;;;;;;;32.30;5.40;;;;;;;7.74;78.72;102058.72;5045781;28;20048;-73
2023/01/30 10:28:23;;;;;;;32.87;5.00;;;;;;;7.73;78.63;102054.28;5042275;28;20029;-73
2023/01/30 10:30:51;;;;;;;30.48;4.10;;;;;;;7.72;77.63;102060.75;5040450;28;20774;-73
2023/01/30 10:33:32;;;;;;;24.52;4.55;;;;;;;7.82;77.94;102058.00;5041797;28;20119;-73
2023/01/30 10:36:15;;;;;;;22.38;4.50;;;;;;;7.86;78.46;102062.97;5039600;28;20112;-74
2023/01/30 10:38:48;;;;;;;29.45;4.78;;;;;;;7.81;78.46;102065.34;5039767;28;20111;-73
2023/01/30 10:41:33;;;;;;;26.65;4.55;;;;;;;7.90;78.70;102066.28;5041904;28;20036;-74
2023/01/30 10:44:03;;;;;;;24.20;4.53;;;;;;;7.81;77.44;102053.56;5041234;28;20469;-73
2023/01/30 10:47:08;;;;;;;24.17;3.95;;;;;;;7.83;78.58;102051.53;5041527;28;20028;-73
2023/01/30 10:49:57;;;;;;;19.75;3.72;;;;;;;7.80;78.53;102065.47;5045961;28;20492;-72
2023/01/30 10:53:00;;;;;;;27.73;3.63;;;;;;;7.87;78.55;102063.84;5040824;28;20045;-73
2023/01/30 10:55:41;;;;;;;23.52;5.57;;;;;;;8.01;77.76;102060.66;5041574;28;20075;-73
2023/01/30 10:58:30;;;;;;;31.88;4.10;;;;;;;8.05;77.09;102062.91;5037993;28;20428;-73
2023/01/30 11:01:00;;;;;;;20.60;3.70;;;;;;;8.05;77.58;102067.50;5042034;28;20048;-74
2023/01/30 11:03:31;;;;;;;28.75;4.20;;;;;;;8.04;77.37;102063.06;5039201;28;20051;-75
2023/01/30 11:06:25;;;;;;;27.10;5.10;;;;;;;8.06;77.86;102066.50;5042416;28;20469;-76
2023/01/30 11:08:52;;;;;;;26.88;4.72;;;;;;;8.04;76.99;102071.25;5041734;28;20436;-74
2023/01/30 11:11:26;;;;;;;25.65;3.58;;;;;;;8.06;76.87;102061.06;5040567;28;20098;-75
2023/01/30 11:14:05;;;;;;;31.67;4.22;;;;;;;8.06;76.71;102064.63;5042517;28;20063;-75
2023/01/30 11:16:42;;;;;;;26.48;4.10;;;;;;;8.11;76.35;102069.66;5056232;28;20032;-75
2023/01/30 11:19:08;;;;;;;15.85;3.63;;;;;;;8.12;77.98;102068.63;5040501;28;20029;-73
2023/01/30 11:21:35;;;;;;;23.17;4.22;;;;;;;8.16;77.04;102061.88;5041677;28;20048;-73
2023/01/30 11:24:10;;;;;;;24.95;3.85;;;;;;;8.19;77.32;102075.19;5039971;28;20033;-73
2023/01/30 11:26:36;;;;;;;22.33;4.50;;;;;;;8.17;78.22;102077.22;5040831;28;20025;-74
2023/01/30 11:29:22;;;;;;;23.70;4.20;;;;;;;8.10;78.11;102066.03;5038953;28;20108;-74
2023/01/30 11:31:50;;;;;;;37.72;4.75;;;;;;;8.09;78.43;102069.78;5039045;28;20496;-73
2023/01/30 11:34:17;;;;;;;34.05;5.15;;;;;;;8.10;77.86;102060.59;5038758;28;20055;-74
2023/01/30 11:36:45;;;;;;;26.50;4.68;;;;;;;8.04;78.80;102072.09;5042450;28;20120;-73
2023/01/30 11:39:11;;;;;;;32.65;4.88;;;;;;;8.07;78.32;102065.50;5038603;28;20022;-73
2023/01/30 11:41:40;;;;;;;29.35;4.88;;;;;;;8.09;78.54;102074.38;5041076;28;20044;-73
2023/01/30 11:44:08;;;;;;;30.70;4.57;;;;;;;8.03;78.01;102073.13;5039071;28;20087;-74